עמוד ראשי
METAR-TAF:

METAR-TAF

שדות תעופה :

Wheeler, הוואי, ארצות הברית

קו רוחב: 21-29N, קו אורך: 158-02W, גובה: 255מטר

תצפית מזג אוויר נוכחית

הדו"ח נערך לפני 7דקות, בשעה 00:55 UTC
רוח 10קשר מכיוון מזרח/דרום-מזרח
טמפרטורת 26 צלסיוס
לחות 54%
לחץ 1017 hPa
ראות: 16.1קילומטר
עננים בינוניים בגובה 3300רגל
מעונן בגובה 4300רגל

METAR: PHHI 270055Z AUTO 11010KT 10SM BKN033 OVC043 26/16 A3003 RMK AO2 SLP160 T02580163 $

זמן: 15:02 (01:02 UTC)


TAF: חסר

תצפיות ותחזיות מזג אוויר לגבי יותר מ- 4,000 שדות תעופה ברחבי העולם. דוחות METAR ו- TAF.

התחנות הזמינות מסומנות בנקודות צהובות ואדומות על גבי המפה.

העבר את העכבר לנקודה הצבעונית על מנת לראות את שם התחנה.

לאחר מכן, לחץ כדי לראות את תוכן ואת תחזיות מזג האוויר.

כדי לשנות את המפה: לחץ על הכפתורים הירוקים עם הפלוס השחור כדי להתקרב; על הכפתור הירוק עם המקף כדי להתרחק; או בחיצים הירוקים למפות סמוכות.


METAR-TAF: